createdAt,value
2023-05-11T00:00:39.233Z,12.97
2023-05-11T00:03:06.240Z,12.97
2023-05-11T00:05:32.860Z,13.01
2023-05-11T00:07:59.294Z,13.00
2023-05-11T00:10:25.812Z,13.02
2023-05-11T00:12:52.372Z,13.03
2023-05-11T00:15:19.106Z,13.02
2023-05-11T00:17:45.658Z,12.96
2023-05-11T00:20:12.226Z,12.94
2023-05-11T00:22:39.155Z,12.92
2023-05-11T00:25:06.498Z,12.91
2023-05-11T00:27:32.995Z,12.93
2023-05-11T00:29:59.516Z,12.94
2023-05-11T00:32:26.056Z,12.97
2023-05-11T00:34:52.544Z,12.99
2023-05-11T00:37:18.970Z,12.97
2023-05-11T00:39:45.443Z,12.96
2023-05-11T00:42:11.882Z,12.96
2023-05-11T00:44:38.278Z,12.95
2023-05-11T00:47:04.937Z,12.98
2023-05-11T00:49:31.479Z,13.01
2023-05-11T00:51:58.044Z,13.05
2023-05-11T00:54:25.253Z,13.05
2023-05-11T00:56:51.791Z,13.05
2023-05-11T00:59:18.779Z,13.01
2023-05-11T01:01:45.618Z,12.97
2023-05-11T01:04:12.947Z,12.95
2023-05-11T01:06:55.581Z,12.89
2023-05-11T01:09:32.713Z,12.81
2023-05-11T01:12:05.323Z,12.77
2023-05-11T01:14:42.300Z,12.80
2023-05-11T01:17:22.438Z,12.83
2023-05-11T01:19:56.768Z,12.79
2023-05-11T01:22:54.285Z,12.77
2023-05-11T01:25:29.890Z,12.75
2023-05-11T01:28:21.415Z,12.71
2023-05-11T01:31:10.716Z,12.68
2023-05-11T01:33:48.049Z,12.56
2023-05-11T01:36:16.867Z,12.51
2023-05-11T01:38:47.584Z,12.45
2023-05-11T01:41:17.646Z,12.44
2023-05-11T01:43:53.439Z,12.43
2023-05-11T01:46:23.323Z,12.50
2023-05-11T01:48:52.527Z,12.55
2023-05-11T01:51:19.902Z,12.57
2023-05-11T01:53:47.927Z,12.53
2023-05-11T01:56:15.226Z,12.53
2023-05-11T01:58:43.627Z,12.54
2023-05-11T02:01:11.823Z,12.52
2023-05-11T02:03:41.646Z,12.47
2023-05-11T02:06:11.389Z,12.35
2023-05-11T02:08:39.701Z,12.28
2023-05-11T02:11:07.494Z,12.32
2023-05-11T02:13:37.560Z,12.36
2023-05-11T02:16:06.683Z,12.32
2023-05-11T02:18:34.488Z,12.23
2023-05-11T02:21:02.904Z,12.24
2023-05-11T02:23:32.882Z,12.18
2023-05-11T02:25:59.837Z,12.16
2023-05-11T02:28:26.336Z,12.20
2023-05-11T02:30:59.575Z,12.23
2023-05-11T02:33:31.571Z,12.28
2023-05-11T02:35:59.482Z,12.37
2023-05-11T02:38:33.514Z,12.39
2023-05-11T02:41:07.120Z,12.43
2023-05-11T02:43:36.881Z,12.43
2023-05-11T02:46:06.933Z,12.39
2023-05-11T02:48:39.983Z,12.38
2023-05-11T02:51:08.395Z,12.29
2023-05-11T02:53:37.929Z,12.24
2023-05-11T02:56:05.345Z,12.20
2023-05-11T02:58:32.389Z,12.16
2023-05-11T03:01:00.148Z,12.23
2023-05-11T03:03:27.582Z,12.27
2023-05-11T03:05:54.052Z,12.29
2023-05-11T03:08:20.519Z,12.31
2023-05-11T03:10:47.107Z,12.33
2023-05-11T03:13:14.089Z,12.36
2023-05-11T03:15:41.431Z,12.36
2023-05-11T03:18:09.070Z,12.35
2023-05-11T03:20:40.246Z,12.34
2023-05-11T03:23:07.598Z,12.33
2023-05-11T03:25:34.644Z,12.33
2023-05-11T03:28:02.525Z,12.33
2023-05-11T03:30:29.672Z,12.37
2023-05-11T03:32:56.365Z,12.40
2023-05-11T03:35:27.261Z,12.41
2023-05-11T03:37:56.437Z,12.43
2023-05-11T03:40:24.396Z,12.42
2023-05-11T03:42:55.481Z,12.42
2023-05-11T03:45:23.348Z,12.40
2023-05-11T03:47:52.223Z,12.41
2023-05-11T03:50:21.169Z,12.44
2023-05-11T03:52:49.134Z,12.44
2023-05-11T03:55:16.189Z,12.42
2023-05-11T03:57:43.254Z,12.43
2023-05-11T04:00:11.223Z,12.43
2023-05-11T04:02:37.886Z,12.43
2023-05-11T04:05:11.716Z,12.46
2023-05-11T04:07:39.478Z,12.45
2023-05-11T04:10:07.344Z,12.41
2023-05-11T04:12:33.865Z,12.36
2023-05-11T04:15:00.419Z,12.30
2023-05-11T04:17:26.949Z,12.30
2023-05-11T04:19:53.397Z,12.31
2023-05-11T04:22:19.867Z,12.28
2023-05-11T04:24:46.289Z,12.31
2023-05-11T04:27:12.676Z,12.33
2023-05-11T04:29:39.147Z,12.34
2023-05-11T04:32:05.836Z,12.36
2023-05-11T04:34:32.234Z,12.33
2023-05-11T04:36:59.034Z,12.36
2023-05-11T04:39:26.198Z,12.39
2023-05-11T04:41:52.627Z,12.34
2023-05-11T04:44:19.036Z,12.35
2023-05-11T04:46:45.487Z,12.35
2023-05-11T04:49:11.943Z,12.34
2023-05-11T04:51:39.283Z,12.32
2023-05-11T04:54:05.809Z,12.35
2023-05-11T04:56:32.263Z,12.35
2023-05-11T04:58:58.666Z,12.36
2023-05-11T05:01:25.138Z,12.37
2023-05-11T05:03:51.801Z,12.35
2023-05-11T05:06:18.287Z,12.39
2023-05-11T05:08:44.717Z,12.41
2023-05-11T05:11:11.272Z,12.39
2023-05-11T05:13:37.825Z,12.41
2023-05-11T05:16:04.472Z,12.44
2023-05-11T05:18:30.902Z,12.47
2023-05-11T05:20:57.397Z,12.52
2023-05-11T05:23:23.853Z,12.52
2023-05-11T05:25:50.385Z,12.55
2023-05-11T05:28:18.078Z,12.58
2023-05-11T05:30:44.615Z,12.52
2023-05-11T05:33:11.098Z,12.54
2023-05-11T05:35:37.579Z,12.54
2023-05-11T05:38:04.088Z,12.53
2023-05-11T05:40:30.728Z,12.52
2023-05-11T05:42:57.154Z,12.55
2023-05-11T05:45:23.750Z,12.55
2023-05-11T05:47:51.739Z,12.57
2023-05-11T05:50:18.476Z,12.54
2023-05-11T05:52:45.036Z,12.58
2023-05-11T05:55:11.490Z,12.65
2023-05-11T05:57:37.895Z,12.66
2023-05-11T06:00:04.798Z,12.65
2023-05-11T06:02:31.264Z,12.67
2023-05-11T06:04:58.444Z,12.68
2023-05-11T06:07:25.080Z,12.69
2023-05-11T06:09:51.494Z,12.66
2023-05-11T06:12:17.916Z,12.69
2023-05-11T06:14:44.331Z,12.74
2023-05-11T06:17:10.885Z,12.75
2023-05-11T06:19:38.551Z,12.71
2023-05-11T06:22:06.718Z,12.72
2023-05-11T06:24:33.653Z,12.69
2023-05-11T06:27:00.559Z,12.70
2023-05-11T06:29:27.071Z,12.78
2023-05-11T06:31:54.399Z,12.73
2023-05-11T06:34:21.810Z,12.73
2023-05-11T06:36:48.763Z,12.79
2023-05-11T06:39:15.243Z,12.88
2023-05-11T06:41:41.734Z,12.96
2023-05-11T06:44:08.498Z,13.00
2023-05-11T06:46:35.028Z,12.92
2023-05-11T06:49:01.896Z,12.95
2023-05-11T06:51:28.304Z,12.97
2023-05-11T06:53:54.726Z,13.05
2023-05-11T06:56:21.838Z,13.14
2023-05-11T06:58:48.393Z,13.21
2023-05-11T07:01:14.912Z,13.19
2023-05-11T07:03:41.489Z,13.17
2023-05-11T07:06:08.189Z,13.18
2023-05-11T07:08:34.719Z,13.24
2023-05-11T07:11:01.444Z,13.25
2023-05-11T07:13:27.905Z,13.35
2023-05-11T07:15:57.238Z,13.39
2023-05-11T07:18:24.211Z,13.45
2023-05-11T07:20:50.760Z,13.51
2023-05-11T07:23:17.267Z,13.53
2023-05-11T07:25:43.770Z,13.50
2023-05-11T07:28:10.283Z,13.48
2023-05-11T07:30:36.787Z,13.44
2023-05-11T07:33:03.993Z,13.40
2023-05-11T07:35:30.856Z,13.44
2023-05-11T07:37:57.411Z,13.38
2023-05-11T07:40:23.934Z,13.42
2023-05-11T07:42:50.403Z,13.45
2023-05-11T07:45:16.878Z,13.45
2023-05-11T07:47:43.413Z,13.51
2023-05-11T07:50:10.097Z,13.43
2023-05-11T07:52:36.647Z,13.43
2023-05-11T07:55:03.202Z,13.49
2023-05-11T07:57:29.625Z,13.50
2023-05-11T07:59:56.205Z,13.52
2023-05-11T08:02:22.963Z,13.45
2023-05-11T08:04:49.540Z,13.42
2023-05-11T08:07:16.097Z,13.50
2023-05-11T08:09:42.779Z,13.48
2023-05-11T08:12:09.854Z,13.51
2023-05-11T08:14:36.511Z,13.59
2023-05-11T08:17:05.661Z,13.66
2023-05-11T08:19:32.121Z,13.69
2023-05-11T08:22:00.270Z,13.71
2023-05-11T08:24:27.076Z,13.61
2023-05-11T08:26:53.973Z,13.66
2023-05-11T08:29:20.435Z,13.67
2023-05-11T08:31:46.967Z,13.63
2023-05-11T08:34:19.290Z,13.62
2023-05-11T08:36:46.800Z,13.65
2023-05-11T08:39:13.387Z,13.71
2023-05-11T08:41:39.973Z,13.68
2023-05-11T08:44:07.719Z,13.65
2023-05-11T08:46:36.080Z,13.74
2023-05-11T08:49:03.071Z,13.75
2023-05-11T08:51:29.571Z,13.79
2023-05-11T08:53:57.773Z,13.79
2023-05-11T08:56:26.595Z,13.79
2023-05-11T08:58:56.241Z,13.85
2023-05-11T09:01:23.753Z,13.79
2023-05-11T09:03:51.516Z,13.81
2023-05-11T09:06:18.282Z,13.84
2023-05-11T09:08:45.880Z,13.88
2023-05-11T09:11:12.850Z,13.94
2023-05-11T09:13:39.539Z,13.96
2023-05-11T09:16:13.834Z,14.02
2023-05-11T09:18:47.749Z,14.04
2023-05-11T09:21:14.387Z,14.08
2023-05-11T09:23:41.096Z,14.10
2023-05-11T09:26:29.621Z,14.07
2023-05-11T09:29:02.859Z,14.17
2023-05-11T09:31:43.522Z,14.28
2023-05-11T09:34:16.270Z,14.25
2023-05-11T09:36:47.968Z,14.35
2023-05-11T09:39:15.844Z,14.41
2023-05-11T09:41:43.247Z,14.47
2023-05-11T09:44:14.096Z,14.53
2023-05-11T09:46:42.975Z,14.48
2023-05-11T09:49:09.892Z,14.48
2023-05-11T09:51:40.332Z,14.56
2023-05-11T09:54:18.965Z,14.56
2023-05-11T09:56:46.407Z,14.65
2023-05-11T09:59:18.113Z,14.74
2023-05-11T10:01:44.743Z,14.77
2023-05-11T10:04:22.891Z,14.71
2023-05-11T10:06:55.108Z,14.56
2023-05-11T10:09:25.744Z,14.45
2023-05-11T10:11:55.154Z,14.38
2023-05-11T10:14:22.474Z,14.33
2023-05-11T10:16:49.188Z,14.29
2023-05-11T10:19:16.522Z,14.29
2023-05-11T10:21:44.007Z,14.31
2023-05-11T10:24:11.263Z,14.29
2023-05-11T10:26:38.553Z,14.29
2023-05-11T10:29:05.327Z,14.27
2023-05-11T10:31:32.948Z,14.25
2023-05-11T10:34:01.216Z,14.25
2023-05-11T10:36:28.213Z,14.31
2023-05-11T10:38:54.619Z,14.36
2023-05-11T10:41:44.941Z,14.42
2023-05-11T10:44:28.469Z,14.48
2023-05-11T10:47:29.083Z,14.54
2023-05-11T10:50:16.305Z,14.62
2023-05-11T10:53:02.614Z,14.72
2023-05-11T10:55:38.067Z,14.82
2023-05-11T10:58:10.409Z,14.84
2023-05-11T11:00:52.122Z,14.88
2023-05-11T11:03:18.745Z,14.97
2023-05-11T11:05:46.319Z,14.96
2023-05-11T11:08:12.913Z,14.99
2023-05-11T11:10:46.864Z,15.01
2023-05-11T11:13:14.769Z,15.05
2023-05-11T11:15:56.642Z,15.16
2023-05-11T11:18:30.819Z,15.17
2023-05-11T11:20:58.432Z,15.32
2023-05-11T11:23:40.487Z,15.47
2023-05-11T11:26:18.758Z,15.42
2023-05-11T11:28:54.303Z,15.41
2023-05-11T11:31:28.068Z,15.32
2023-05-11T11:33:58.869Z,15.29
2023-05-11T11:36:58.438Z,15.31
2023-05-11T11:39:50.280Z,15.26
2023-05-11T11:42:34.510Z,15.23
2023-05-11T11:45:27.973Z,15.18
2023-05-11T11:48:13.259Z,15.17
2023-05-11T11:50:45.743Z,15.17
2023-05-11T11:53:33.295Z,15.26
2023-05-11T11:56:00.132Z,15.27
2023-05-11T11:58:41.865Z,15.31
2023-05-11T12:01:10.126Z,15.34
2023-05-11T12:03:37.281Z,15.37
2023-05-11T12:06:06.370Z,15.45
2023-05-11T12:08:32.874Z,15.54
2023-05-11T12:11:01.377Z,15.70
2023-05-11T12:13:28.718Z,15.81
2023-05-11T12:16:15.079Z,15.75
2023-05-11T12:19:02.389Z,15.75
2023-05-11T12:21:33.797Z,15.71
2023-05-11T12:24:02.107Z,15.64
2023-05-11T12:26:30.408Z,15.58
2023-05-11T12:29:12.657Z,15.53
2023-05-11T12:31:44.655Z,15.51
2023-05-11T12:34:16.130Z,15.57
2023-05-11T12:36:43.892Z,15.50
2023-05-11T12:39:20.822Z,15.43
2023-05-11T12:41:49.078Z,15.44
2023-05-11T12:44:19.287Z,15.46
2023-05-11T12:46:47.252Z,15.48
2023-05-11T12:49:24.887Z,15.49
2023-05-11T12:52:02.328Z,15.47
2023-05-11T12:54:29.974Z,15.47
2023-05-11T12:56:56.473Z,15.46
2023-05-11T12:59:40.135Z,15.54
2023-05-11T13:02:11.319Z,15.56
2023-05-11T13:04:39.706Z,15.61
2023-05-11T13:07:06.570Z,15.69
2023-05-11T13:09:33.533Z,15.90
2023-05-11T13:12:19.001Z,16.28
2023-05-11T13:14:49.573Z,16.41
2023-05-11T13:17:39.064Z,16.46
2023-05-11T13:20:27.280Z,16.45
2023-05-11T13:23:04.409Z,16.48
2023-05-11T13:25:31.798Z,16.37
2023-05-11T13:27:58.243Z,16.33
2023-05-11T13:30:24.718Z,16.40
2023-05-11T13:32:51.249Z,16.40
2023-05-11T13:35:17.976Z,16.37
2023-05-11T13:37:46.080Z,16.40
2023-05-11T13:40:13.054Z,16.40
2023-05-11T13:42:41.602Z,16.34
2023-05-11T13:45:08.552Z,16.28
2023-05-11T13:47:35.900Z,16.24
2023-05-11T13:50:02.699Z,16.17
2023-05-11T13:52:29.283Z,16.18
2023-05-11T13:54:56.812Z,16.20
2023-05-11T13:57:23.447Z,16.17
2023-05-11T13:59:50.565Z,16.07
2023-05-11T14:02:17.055Z,16.08
2023-05-11T14:04:43.767Z,15.99
2023-05-11T14:07:10.342Z,15.90
2023-05-11T14:09:37.169Z,15.83
2023-05-11T14:12:04.036Z,15.86
2023-05-11T14:14:30.577Z,15.88
2023-05-11T14:16:57.125Z,15.88
2023-05-11T14:19:23.759Z,15.89
2023-05-11T14:21:50.529Z,15.89
2023-05-11T14:24:16.937Z,15.85
2023-05-11T14:26:43.513Z,15.75
2023-05-11T14:29:10.190Z,15.72
2023-05-11T14:31:37.356Z,15.64
2023-05-11T14:34:04.642Z,15.59
2023-05-11T14:36:31.923Z,15.50
2023-05-11T14:38:58.446Z,15.45
2023-05-11T14:41:25.590Z,15.40
2023-05-11T14:43:52.256Z,15.27
2023-05-11T14:46:18.723Z,15.19
2023-05-11T14:48:45.320Z,15.13
2023-05-11T14:51:11.841Z,15.09
2023-05-11T14:53:38.333Z,15.01
2023-05-11T14:56:05.173Z,14.97
2023-05-11T14:58:32.047Z,15.04
2023-05-11T15:00:58.548Z,15.03
2023-05-11T15:03:25.181Z,15.03
2023-05-11T15:05:51.812Z,15.10
2023-05-11T15:08:29.109Z,15.10
2023-05-11T15:10:56.982Z,15.09
2023-05-11T15:13:24.012Z,15.11
2023-05-11T15:15:51.580Z,15.08
2023-05-11T15:18:18.747Z,15.07
2023-05-11T15:20:46.242Z,15.10
2023-05-11T15:23:16.594Z,15.09
2023-05-11T15:25:44.450Z,15.07
2023-05-11T15:28:13.841Z,15.04
2023-05-11T15:30:41.555Z,14.98
2023-05-11T15:33:10.070Z,15.04
2023-05-11T15:35:37.555Z,14.90
2023-05-11T15:38:04.293Z,14.90
2023-05-11T15:40:30.833Z,14.87
2023-05-11T15:42:58.940Z,14.87
2023-05-11T15:45:26.066Z,14.86
2023-05-11T15:47:52.741Z,14.85
2023-05-11T15:50:19.436Z,14.80
2023-05-11T15:52:46.097Z,14.80
2023-05-11T15:55:12.586Z,14.84
2023-05-11T15:57:39.010Z,14.84
2023-05-11T16:00:06.178Z,14.77
2023-05-11T16:02:32.753Z,14.72
2023-05-11T16:04:59.320Z,14.74
2023-05-11T16:07:27.117Z,14.66
2023-05-11T16:09:53.758Z,14.73
2023-05-11T16:12:20.272Z,14.78
2023-05-11T16:14:46.734Z,14.80
2023-05-11T16:17:13.384Z,14.74
2023-05-11T16:19:40.306Z,14.68
2023-05-11T16:22:07.459Z,14.70
2023-05-11T16:24:34.635Z,14.73
2023-05-11T16:27:01.363Z,14.76
2023-05-11T16:29:27.892Z,14.79
2023-05-11T16:31:54.468Z,14.72
2023-05-11T16:34:21.079Z,14.63
2023-05-11T16:36:47.592Z,14.59
2023-05-11T16:39:14.051Z,14.58
2023-05-11T16:41:40.621Z,14.59
2023-05-11T16:44:07.135Z,14.63
2023-05-11T16:46:33.684Z,14.64
2023-05-11T16:49:00.264Z,14.65
2023-05-11T16:51:26.832Z,14.63
2023-05-11T16:53:53.294Z,14.48
2023-05-11T16:56:19.796Z,14.45
2023-05-11T16:58:46.359Z,14.40
2023-05-11T17:01:12.819Z,14.37
2023-05-11T17:03:39.402Z,14.37
2023-05-11T17:06:06.227Z,14.37
2023-05-11T17:08:34.189Z,14.34
2023-05-11T17:11:00.647Z,14.31
2023-05-11T17:13:27.208Z,14.22
2023-05-11T17:15:56.140Z,14.24
2023-05-11T17:18:23.744Z,14.26
2023-05-11T17:20:54.499Z,14.25
2023-05-11T17:23:21.216Z,14.24
2023-05-11T17:25:48.130Z,14.20
2023-05-11T17:28:15.192Z,14.14
2023-05-11T17:33:13.777Z,14.13
2023-05-11T17:35:40.467Z,14.14
2023-05-11T17:38:07.566Z,14.05
2023-05-11T17:40:34.300Z,14.03
2023-05-11T17:43:01.555Z,14.04
2023-05-11T17:45:28.107Z,14.10
2023-05-11T17:47:54.895Z,14.15
2023-05-11T17:50:23.374Z,14.16
2023-05-11T17:52:51.203Z,14.08
2023-05-11T17:55:18.559Z,14.09
2023-05-11T17:57:45.307Z,14.11
2023-05-11T18:00:12.548Z,14.12
2023-05-11T18:02:39.524Z,14.08
2023-05-11T18:05:07.060Z,14.07
2023-05-11T18:07:33.688Z,14.09
2023-05-11T18:10:00.328Z,14.08
2023-05-11T18:12:27.013Z,14.05
2023-05-11T18:14:53.491Z,14.04
2023-05-11T18:17:19.974Z,14.04
2023-05-11T18:19:46.384Z,14.08
2023-05-11T18:22:13.050Z,14.07
2023-05-11T18:24:39.498Z,14.06
2023-05-11T18:27:06.027Z,14.06
2023-05-11T18:29:32.475Z,14.04
2023-05-11T18:31:59.005Z,14.01
2023-05-11T18:34:25.541Z,14.02
2023-05-11T18:36:52.015Z,14.01
2023-05-11T18:39:19.295Z,14.02
2023-05-11T18:41:45.962Z,14.02
2023-05-11T18:44:14.037Z,13.98
2023-05-11T18:46:41.067Z,14.00
2023-05-11T18:49:07.688Z,14.01
2023-05-11T18:51:34.135Z,13.99
2023-05-11T18:54:01.183Z,14.03
2023-05-11T18:56:27.663Z,14.05
2023-05-11T18:58:54.250Z,14.05
2023-05-11T19:01:24.099Z,14.06
2023-05-11T19:03:52.389Z,14.05
2023-05-11T19:06:18.829Z,14.03
2023-05-11T19:08:45.250Z,14.01
2023-05-11T19:11:13.898Z,14.02
2023-05-11T19:13:40.591Z,14.03
2023-05-11T19:16:07.158Z,14.00
2023-05-11T19:18:35.632Z,14.00
2023-05-11T19:21:03.126Z,14.01
2023-05-11T19:23:29.620Z,14.02
2023-05-11T19:25:56.076Z,13.95
2023-05-11T19:28:22.624Z,13.95
2023-05-11T19:30:49.219Z,13.97
2023-05-11T19:33:16.046Z,13.90
2023-05-11T19:35:42.557Z,13.82
2023-05-11T19:38:09.048Z,13.86
2023-05-11T19:40:45.832Z,13.89
2023-05-11T19:43:13.040Z,13.86
2023-05-11T19:45:42.250Z,13.80
2023-05-11T19:48:09.115Z,13.79
2023-05-11T19:50:35.590Z,13.82
2023-05-11T19:53:02.100Z,13.80
2023-05-11T19:55:28.618Z,13.84
2023-05-11T19:57:55.064Z,13.82
2023-05-11T20:00:25.016Z,13.79
2023-05-11T20:02:55.149Z,13.80
2023-05-11T20:05:21.748Z,13.79
2023-05-11T20:07:48.308Z,13.80
2023-05-11T20:10:14.779Z,13.77
2023-05-11T20:12:41.448Z,13.72
2023-05-11T20:15:08.526Z,13.74
2023-05-11T20:17:35.942Z,13.78
2023-05-11T20:20:02.916Z,13.79
2023-05-11T20:22:29.668Z,13.75
2023-05-11T20:24:56.403Z,13.76
2023-05-11T20:27:23.124Z,13.75
2023-05-11T20:29:49.605Z,13.76
2023-05-11T20:32:16.092Z,13.72
2023-05-11T20:34:42.543Z,13.70
2023-05-11T20:37:09.398Z,13.68
2023-05-11T20:39:36.316Z,13.68
2023-05-11T20:42:04.786Z,13.66
2023-05-11T20:44:31.353Z,13.69
2023-05-11T20:46:57.870Z,13.66
2023-05-11T20:49:35.105Z,13.65
2023-05-11T20:52:05.908Z,13.62
2023-05-11T20:54:34.751Z,13.63
2023-05-11T20:57:02.023Z,13.66
2023-05-11T21:01:59.997Z,13.63
2023-05-11T21:04:26.514Z,13.61
2023-05-11T21:06:56.433Z,13.61
2023-05-11T21:09:22.909Z,13.61
2023-05-11T21:11:49.371Z,13.62
2023-05-11T21:14:15.859Z,13.64
2023-05-11T21:16:42.718Z,13.66
2023-05-11T21:19:09.340Z,13.62
2023-05-11T21:21:35.871Z,13.58
2023-05-11T21:24:02.432Z,13.54
2023-05-11T21:26:28.987Z,13.52
2023-05-11T21:28:56.987Z,13.54
2023-05-11T21:31:23.553Z,13.59
2023-05-11T21:33:50.097Z,13.61
2023-05-11T21:36:16.586Z,13.56
2023-05-11T21:38:43.051Z,13.50
2023-05-11T21:41:09.682Z,13.52
2023-05-11T21:43:36.154Z,13.52
2023-05-11T21:46:03.061Z,13.48
2023-05-11T21:48:29.921Z,13.48
2023-05-11T21:50:56.337Z,13.48
2023-05-11T21:53:23.784Z,13.50
2023-05-11T21:55:50.391Z,13.48
2023-05-11T21:58:17.226Z,13.47
2023-05-11T22:00:44.175Z,13.44
2023-05-11T22:03:10.750Z,13.41
2023-05-11T22:05:37.237Z,13.38
2023-05-11T22:08:13.980Z,13.42
2023-05-11T22:10:43.034Z,13.40
2023-05-11T22:13:09.747Z,13.34
2023-05-11T22:15:36.286Z,13.29
2023-05-11T22:18:03.591Z,13.34
2023-05-11T22:20:31.612Z,13.37
2023-05-11T22:22:58.211Z,13.34
2023-05-11T22:25:24.748Z,13.31
2023-05-11T22:27:51.265Z,13.28
2023-05-11T22:30:18.256Z,13.28
2023-05-11T22:32:45.006Z,13.27
2023-05-11T22:35:11.742Z,13.27
2023-05-11T22:37:38.161Z,13.26
2023-05-11T22:40:05.352Z,13.28
2023-05-11T22:42:32.773Z,13.32
2023-05-11T22:44:59.343Z,13.33
2023-05-11T22:47:26.130Z,13.27
2023-05-11T22:49:52.639Z,13.23
2023-05-11T22:52:19.092Z,13.26
2023-05-11T22:54:45.566Z,13.26
2023-05-11T22:57:14.683Z,13.27
2023-05-11T22:59:41.168Z,13.26
2023-05-11T23:02:07.700Z,13.24
2023-05-11T23:04:34.187Z,13.23
2023-05-11T23:07:00.630Z,13.24
2023-05-11T23:09:27.689Z,13.25
2023-05-11T23:11:54.306Z,13.23
2023-05-11T23:14:21.005Z,13.24
2023-05-11T23:16:49.645Z,13.25
2023-05-11T23:19:16.217Z,13.25
2023-05-11T23:21:42.756Z,13.20
2023-05-11T23:24:09.208Z,13.20
2023-05-11T23:26:36.004Z,13.22
2023-05-11T23:29:03.493Z,13.22
2023-05-11T23:31:32.102Z,13.24
2023-05-11T23:33:59.131Z,13.25
2023-05-11T23:36:25.629Z,13.22
2023-05-11T23:38:53.281Z,13.25
2023-05-11T23:41:19.818Z,13.24
2023-05-11T23:43:46.222Z,13.25
2023-05-11T23:46:12.903Z,13.23
2023-05-11T23:48:40.143Z,13.22
2023-05-11T23:51:06.621Z,13.19
2023-05-11T23:53:33.068Z,13.17
2023-05-11T23:55:59.476Z,13.19
2023-05-11T23:58:25.957Z,13.20
